Time;durP1;ratioP1;P1;durP2;ratioP2;P2;SDS_P1;SDS_P2;PMS_P1;PMS_P2;Temp;Humidity;BMP_temperature;BMP_pressure;BME280_temperature;BME280_humidity;BME280_pressure;Samples;Min_cycle;Max_cycle;Signal;HPM_P1;HPM_P2
2023/11/27 00:00:48;;;;;;;15.57;9.73;;;2.80;86.40;;;;;;5064401;28;20202;-64
2023/11/27 00:03:15;;;;;;;16.53;9.50;;;2.80;86.50;;;;;;5050945;28;20586;-64
2023/11/27 00:05:42;;;;;;;18.50;8.93;;;2.80;86.50;;;;;;5067772;28;20241;-65
2023/11/27 00:08:10;;;;;;;15.90;8.60;;;2.80;86.50;;;;;;5064782;28;20220;-64
2023/11/27 00:10:42;;;;;;;15.17;10.07;;;2.80;86.60;;;;;;5065188;28;20220;-64
2023/11/27 00:13:09;;;;;;;15.63;9.67;;;2.80;86.50;;;;;;5061727;28;20526;-65
2023/11/27 00:15:36;;;;;;;17.23;9.50;;;2.80;86.60;;;;;;5070112;28;20193;-64
2023/11/27 00:18:04;;;;;;;15.50;9.03;;;2.80;86.70;;;;;;5064358;28;20353;-65
2023/11/27 00:20:31;;;;;;;12.80;8.33;;;2.80;86.70;;;;;;5069615;28;20232;-64
2023/11/27 00:22:58;;;;;;;15.30;9.47;;;2.80;86.80;;;;;;5061841;28;20623;-64
2023/11/27 00:25:25;;;;;;;15.43;9.13;;;2.80;86.80;;;;;;5062850;28;20631;-64
2023/11/27 00:27:52;;;;;;;17.13;9.10;;;2.90;86.80;;;;;;5065505;28;20216;-64
2023/11/27 00:30:20;;;;;;;18.13;9.47;;;2.90;86.70;;;;;;5063583;28;20447;-64
2023/11/27 00:32:47;;;;;;;14.77;8.60;;;2.90;86.50;;;;;;5062023;28;20236;-64
2023/11/27 00:35:14;;;;;;;16.90;9.23;;;2.90;86.40;;;;;;5068766;28;20201;-64
2023/11/27 00:37:41;;;;;;;19.80;8.50;;;2.90;86.30;;;;;;5061094;28;20201;-64
2023/11/27 00:40:09;;;;;;;19.90;9.07;;;2.90;86.80;;;;;;5065470;28;20202;-64
2023/11/27 00:42:36;;;;;;;14.23;8.90;;;2.90;86.10;;;;;;5064984;28;20213;-64
2023/11/27 00:45:05;;;;;;;23.33;9.73;;;3.00;85.90;;;;;;5066707;28;20245;-64
2023/11/27 00:47:35;;;;;;;16.47;9.20;;;3.00;85.70;;;;;;5050603;28;20247;-64
2023/11/27 00:50:03;;;;;;;15.03;8.97;;;3.00;85.50;;;;;;5065452;28;20209;-64
2023/11/27 00:52:31;;;;;;;15.23;8.10;;;2.90;85.40;;;;;;5068198;28;20634;-64
2023/11/27 00:54:58;;;;;;;16.13;8.13;;;3.00;85.40;;;;;;5055586;28;20207;-64
2023/11/27 00:57:25;;;;;;;18.33;8.17;;;2.90;85.40;;;;;;5064367;28;20288;-64
2023/11/27 00:59:52;;;;;;;14.73;8.57;;;2.90;85.40;;;;;;5055633;28;20263;-64
2023/11/27 01:02:20;;;;;;;14.37;8.03;;;2.90;85.40;;;;;;5055655;28;20266;-64
2023/11/27 01:04:48;;;;;;;14.60;9.33;;;2.90;85.50;;;;;;5032969;28;20372;-64
2023/11/27 01:07:15;;;;;;;14.77;8.13;;;2.90;85.40;;;;;;5052370;28;20206;-64
2023/11/27 01:09:42;;;;;;;18.63;9.50;;;2.80;85.30;;;;;;5043177;28;20301;-64
2023/11/27 01:12:09;;;;;;;15.53;8.87;;;2.80;85.30;;;;;;5038859;28;20218;-64
2023/11/27 01:14:36;;;;;;;13.93;9.10;;;2.70;85.30;;;;;;5041209;28;20634;-64
2023/11/27 01:17:04;;;;;;;15.53;8.63;;;2.80;85.50;;;;;;5045682;28;20283;-64
2023/11/27 01:19:31;;;;;;;15.33;9.17;;;2.70;85.40;;;;;;5043663;28;20256;-64
2023/11/27 01:21:58;;;;;;;13.37;8.57;;;2.70;85.40;;;;;;5044670;28;20209;-64
2023/11/27 01:24:25;;;;;;;13.73;8.30;;;2.70;85.50;;;;;;5032444;28;20208;-64
2023/11/27 01:26:52;;;;;;;20.83;10.27;;;2.70;85.60;;;;;;5045275;28;20634;-64
2023/11/27 01:29:21;;;;;;;13.23;8.50;;;2.60;85.70;;;;;;5031485;28;20619;-64
2023/11/27 01:31:49;;;;;;;13.47;8.60;;;2.60;85.90;;;;;;5047084;28;20222;-64
2023/11/27 01:34:18;;;;;;;17.03;8.90;;;2.60;85.90;;;;;;5048989;28;20196;-64
2023/11/27 01:36:45;;;;;;;16.40;9.83;;;2.60;85.90;;;;;;5039867;28;20204;-64
2023/11/27 01:39:12;;;;;;;17.37;9.97;;;2.60;86.50;;;;;;5048525;28;20225;-64
2023/11/27 01:41:39;;;;;;;15.23;8.67;;;2.50;85.90;;;;;;5047115;28;20189;-64
2023/11/27 01:44:06;;;;;;;16.67;9.13;;;2.50;85.80;;;;;;5044306;28;20204;-64
2023/11/27 01:46:37;;;;;;;14.67;9.03;;;2.50;85.70;;;;;;5050314;28;20202;-64
2023/11/27 01:49:04;;;;;;;14.10;7.80;;;2.50;85.70;;;;;;5035985;28;20291;-64
2023/11/27 01:51:32;;;;;;;13.07;7.70;;;2.50;85.60;;;;;;5045115;28;20245;-64
2023/11/27 01:53:59;;;;;;;12.50;8.47;;;2.50;85.50;;;;;;5051991;28;20657;-64
2023/11/27 01:56:28;;;;;;;13.97;8.40;;;2.40;85.40;;;;;;5052280;28;20210;-64
2023/11/27 01:58:58;;;;;;;16.70;8.90;;;2.40;85.40;;;;;;5041193;28;20214;-64
2023/11/27 02:01:25;;;;;;;18.00;9.10;;;2.40;85.60;;;;;;5040693;28;20197;-64
2023/11/27 02:03:54;;;;;;;14.07;8.67;;;2.40;85.70;;;;;;5049582;28;20646;-63
2023/11/27 02:06:21;;;;;;;21.27;11.53;;;2.40;85.70;;;;;;5053637;28;20205;-64
2023/11/27 02:08:48;;;;;;;19.17;10.17;;;2.40;85.80;;;;;;5053178;28;20210;-64
2023/11/27 02:11:18;;;;;;;14.13;10.07;;;2.40;85.80;;;;;;5052157;28;20230;-64
2023/11/27 02:13:45;;;;;;;17.80;10.27;;;2.40;85.90;;;;;;5071266;28;20204;-64
2023/11/27 02:16:13;;;;;;;17.17;9.33;;;2.30;85.90;;;;;;5064254;28;20193;-64
2023/11/27 02:18:41;;;;;;;20.97;11.20;;;2.30;86.00;;;;;;5067804;28;20636;-63
2023/11/27 02:21:10;;;;;;;18.20;10.60;;;2.20;85.90;;;;;;5066065;28;20413;-63
2023/11/27 02:23:37;;;;;;;14.97;9.80;;;2.20;86.00;;;;;;5062732;28;20853;-64
2023/11/27 02:26:05;;;;;;;17.80;10.63;;;2.20;86.30;;;;;;5044650;28;20200;-63
2023/11/27 02:28:33;;;;;;;17.40;10.87;;;2.20;86.40;;;;;;5053097;28;20520;-63
2023/11/27 02:31:00;;;;;;;15.87;9.67;;;2.10;86.40;;;;;;5064977;28;20546;-63
2023/11/27 02:33:28;;;;;;;16.53;10.20;;;2.10;86.50;;;;;;5051902;28;20215;-63
2023/11/27 02:35:55;;;;;;;18.07;10.70;;;2.10;86.60;;;;;;5051745;28;20214;-63
2023/11/27 02:38:22;;;;;;;17.20;11.07;;;2.10;86.80;;;;;;5060718;28;20236;-64
2023/11/27 02:40:50;;;;;;;18.40;9.53;;;2.00;86.90;;;;;;5067436;28;20199;-63
2023/11/27 02:43:18;;;;;;;15.43;9.27;;;2.00;86.90;;;;;;5053858;28;20195;-63
2023/11/27 02:45:45;;;;;;;19.20;9.07;;;2.00;87.00;;;;;;5056708;28;20222;-64
2023/11/27 02:48:12;;;;;;;11.03;7.70;;;2.00;87.00;;;;;;5047450;28;20211;-64
2023/11/27 02:50:39;;;;;;;15.37;10.07;;;1.90;87.00;;;;;;5063137;28;20195;-64
2023/11/27 02:53:06;;;;;;;15.90;9.10;;;1.90;87.20;;;;;;5048159;28;20235;-63
2023/11/27 02:55:34;;;;;;;21.00;8.90;;;1.90;87.30;;;;;;5033966;28;20200;-63
2023/11/27 02:58:01;;;;;;;16.37;9.33;;;1.90;87.40;;;;;;5069505;28;20286;-63
2023/11/27 03:00:28;;;;;;;14.57;8.73;;;1.90;87.50;;;;;;5065076;28;20224;-64
2023/11/27 03:02:55;;;;;;;16.90;9.47;;;1.90;87.60;;;;;;5065356;28;20231;-63
2023/11/27 03:05:22;;;;;;;15.40;8.50;;;1.90;87.80;;;;;;5064239;28;20241;-63
2023/11/27 03:07:49;;;;;;;15.40;9.93;;;1.90;87.90;;;;;;5065041;28;20211;-63
2023/11/27 03:10:17;;;;;;;13.60;8.87;;;1.90;87.90;;;;;;5058956;28;20251;-63
2023/11/27 03:12:44;;;;;;;13.23;9.30;;;1.90;87.80;;;;;;5049616;28;20223;-64
2023/11/27 03:15:12;;;;;;;12.10;8.50;;;1.80;87.60;;;;;;5058357;28;20198;-64
2023/11/27 03:17:39;;;;;;;18.10;9.73;;;1.80;87.50;;;;;;5070291;28;20196;-63
2023/11/27 03:20:11;;;;;;;17.77;11.00;;;1.80;87.60;;;;;;5056126;28;20330;-63
2023/11/27 03:22:41;;;;;;;17.63;10.30;;;1.80;87.70;;;;;;5058888;28;20202;-63
2023/11/27 03:25:09;;;;;;;18.37;11.03;;;1.80;87.90;;;;;;5068811;28;20219;-63
2023/11/27 03:27:37;;;;;;;15.00;8.83;;;1.80;88.10;;;;;;5063008;28;20510;-63
2023/11/27 03:30:06;;;;;;;19.53;10.50;;;1.80;88.10;;;;;;5056487;28;20211;-63
2023/11/27 03:32:33;;;;;;;13.83;9.10;;;1.80;88.00;;;;;;5068159;28;20207;-64
2023/11/27 03:35:01;;;;;;;14.77;8.63;;;1.80;88.00;;;;;;5069976;28;20207;-64
2023/11/27 03:37:29;;;;;;;14.43;10.03;;;1.80;88.20;;;;;;5071728;28;20606;-64
2023/11/27 03:39:56;;;;;;;18.90;9.73;;;1.80;88.40;;;;;;5066130;28;20206;-63
2023/11/27 03:42:25;;;;;;;18.70;10.13;;;1.80;88.60;;;;;;5066760;28;20226;-64
2023/11/27 03:44:52;;;;;;;14.70;9.33;;;1.90;88.90;;;;;;5065723;28;20610;-64
2023/11/27 03:47:21;;;;;;;13.33;8.83;;;1.90;89.00;;;;;;5057137;28;20216;-63
2023/11/27 03:49:48;;;;;;;16.17;9.47;;;2.00;89.00;;;;;;5058398;28;20330;-64
2023/11/27 03:52:15;;;;;;;16.57;9.53;;;2.00;89.10;;;;;;5064622;28;20235;-64
2023/11/27 03:54:42;;;;;;;18.60;11.30;;;2.10;89.30;;;;;;5066423;28;20535;-64
2023/11/27 03:57:09;;;;;;;16.73;8.93;;;2.10;89.40;;;;;;5066896;28;20669;-63
2023/11/27 03:59:36;;;;;;;12.93;9.40;;;2.10;89.30;;;;;;5058574;28;20193;-63
2023/11/27 04:02:03;;;;;;;14.40;9.03;;;2.20;89.30;;;;;;5061903;28;20216;-64
2023/11/27 04:04:30;;;;;;;16.10;9.23;;;2.20;89.40;;;;;;5063439;28;20679;-64
2023/11/27 04:06:58;;;;;;;16.20;9.57;;;2.30;89.50;;;;;;5066003;28;20210;-64
2023/11/27 04:09:25;;;;;;;15.13;9.50;;;2.30;89.60;;;;;;5050812;28;20196;-62
2023/11/27 04:11:52;;;;;;;15.50;8.63;;;2.30;89.60;;;;;;5069411;28;20197;-63
2023/11/27 04:14:19;;;;;;;14.63;9.20;;;2.40;89.40;;;;;;5058547;28;20225;-63
2023/11/27 04:16:46;;;;;;;14.20;8.70;;;2.40;89.10;;;;;;5067327;28;20621;-63
2023/11/27 04:19:14;;;;;;;14.97;8.90;;;2.50;89.10;;;;;;5072774;28;20207;-63
2023/11/27 04:21:41;;;;;;;14.73;9.30;;;2.50;89.10;;;;;;5055367;28;20201;-63
2023/11/27 04:24:08;;;;;;;13.67;8.77;;;2.50;89.30;;;;;;5065190;28;20209;-63
2023/11/27 04:26:35;;;;;;;15.40;10.00;;;2.50;89.10;;;;;;5061601;28;20525;-63
2023/11/27 04:29:04;;;;;;;21.50;10.10;;;2.60;89.20;;;;;;5054558;28;20276;-64
2023/11/27 04:31:32;;;;;;;14.47;9.13;;;2.60;89.30;;;;;;5066852;28;20198;-64
2023/11/27 04:33:59;;;;;;;14.93;9.63;;;2.60;89.40;;;;;;5064484;28;20215;-64
2023/11/27 04:36:27;;;;;;;15.90;9.90;;;2.70;89.60;;;;;;5057444;28;20208;-64
2023/11/27 04:38:54;;;;;;;13.43;9.23;;;2.70;89.80;;;;;;5057587;28;20216;-63
2023/11/27 04:41:21;;;;;;;15.00;8.67;;;2.80;90.00;;;;;;5066566;28;20282;-63
2023/11/27 04:43:48;;;;;;;15.87;9.93;;;2.80;89.90;;;;;;5065957;28;20204;-63
2023/11/27 04:46:15;;;;;;;13.17;8.87;;;2.80;89.90;;;;;;5062705;28;20204;-63
2023/11/27 04:48:42;;;;;;;17.80;8.77;;;2.80;90.00;;;;;;5066330;28;20209;-64
2023/11/27 04:51:09;;;;;;;14.20;9.17;;;2.80;90.10;;;;;;5061978;28;20196;-64
2023/11/27 04:53:37;;;;;;;13.83;8.67;;;2.90;90.20;;;;;;5063936;28;20213;-63
2023/11/27 04:56:04;;;;;;;14.00;8.23;;;2.90;90.20;;;;;;5034085;28;20259;-63
2023/11/27 04:58:31;;;;;;;13.77;8.63;;;3.00;90.30;;;;;;5054865;28;20196;-64
2023/11/27 05:00:58;;;;;;;10.87;8.27;;;3.00;90.30;;;;;;5069156;28;20871;-64
2023/11/27 05:03:26;;;;;;;15.77;9.00;;;3.00;90.30;;;;;;5062551;28;20228;-64
2023/11/27 05:05:58;;;;;;;17.83;10.07;;;3.00;90.30;;;;;;5048756;28;20233;-64
2023/11/27 05:08:25;;;;;;;13.00;8.70;;;3.10;90.30;;;;;;5063423;28;20222;-64
2023/11/27 05:10:53;;;;;;;13.17;8.47;;;3.10;90.30;;;;;;5056072;28;20533;-64
2023/11/27 05:13:21;;;;;;;14.27;8.43;;;3.10;90.30;;;;;;5069573;28;20320;-63
2023/11/27 05:15:48;;;;;;;13.50;9.23;;;3.10;90.30;;;;;;5062067;28;20702;-64
2023/11/27 05:18:16;;;;;;;13.40;9.83;;;3.10;90.30;;;;;;5054468;28;20214;-64
2023/11/27 05:20:43;;;;;;;12.70;9.03;;;3.10;90.30;;;;;;5066933;28;20186;-64
2023/11/27 05:23:10;;;;;;;12.40;8.77;;;3.20;90.30;;;;;;5064568;28;20262;-64
2023/11/27 05:25:37;;;;;;;14.77;9.80;;;3.20;90.30;;;;;;5065798;28;20199;-63
2023/11/27 05:28:04;;;;;;;16.23;9.40;;;3.20;90.30;;;;;;5061090;28;20211;-64
2023/11/27 05:30:31;;;;;;;16.00;9.77;;;3.20;90.30;;;;;;5050298;28;20236;-64
2023/11/27 05:32:58;;;;;;;15.30;9.43;;;3.20;90.40;;;;;;5063860;28;20240;-64
2023/11/27 05:35:26;;;;;;;15.90;8.90;;;3.20;90.40;;;;;;5063767;28;20198;-64
2023/11/27 05:37:53;;;;;;;14.80;9.60;;;3.30;90.60;;;;;;5063256;28;20205;-64
2023/11/27 05:40:20;;;;;;;13.90;9.03;;;3.30;90.60;;;;;;5059943;28;20207;-64
2023/11/27 05:42:48;;;;;;;14.27;9.00;;;3.30;90.50;;;;;;5063351;28;20197;-64
2023/11/27 05:45:16;;;;;;;15.50;9.87;;;3.30;90.50;;;;;;5064466;28;20197;-64
2023/11/27 05:47:43;;;;;;;16.50;9.83;;;3.40;90.50;;;;;;5065397;28;20232;-64
2023/11/27 05:50:12;;;;;;;17.53;10.00;;;3.30;90.50;;;;;;5062443;28;20206;-64
2023/11/27 05:52:40;;;;;;;13.43;8.50;;;3.40;90.50;;;;;;5058641;28;20206;-64
2023/11/27 05:55:07;;;;;;;15.47;8.87;;;3.40;90.50;;;;;;5059476;28;20642;-64
2023/11/27 05:57:34;;;;;;;14.40;8.10;;;3.40;90.50;;;;;;5062218;28;20522;-64
2023/11/27 06:00:05;;;;;;;14.17;8.23;;;3.50;90.60;;;;;;5061328;28;20206;-64
2023/11/27 06:02:38;;;;;;;11.67;8.37;;;3.50;90.60;;;;;;5064880;28;20197;-64
2023/11/27 06:05:30;;;;;;;11.23;7.10;;;3.50;90.60;;;;;;5061330;28;20236;-64
2023/11/27 06:07:57;;;;;;;13.70;7.40;;;3.50;90.50;;;;;;5063248;28;20216;-64
2023/11/27 06:10:25;;;;;;;12.03;8.07;;;3.50;90.50;;;;;;5061011;28;20204;-64
2023/11/27 06:12:52;;;;;;;16.33;7.93;;;3.50;90.50;;;;;;5061802;28;20205;-64
2023/11/27 06:15:19;;;;;;;8.37;6.27;;;3.60;90.60;;;;;;5065409;28;20610;-64
2023/11/27 06:17:46;;;;;;;10.43;6.33;;;3.60;90.60;;;;;;5062888;28;20645;-64
2023/11/27 06:20:14;;;;;;;12.10;6.70;;;3.60;90.50;;;;;;5066361;28;20287;-64
2023/11/27 06:22:42;;;;;;;9.87;6.10;;;3.60;90.50;;;;;;5060650;28;20194;-64
2023/11/27 06:25:09;;;;;;;13.03;6.43;;;3.60;90.50;;;;;;5063111;28;20631;-64
2023/11/27 06:27:37;;;;;;;11.47;7.30;;;3.70;90.40;;;;;;5062287;28;20217;-64
2023/11/27 06:30:04;;;;;;;17.23;8.43;;;3.60;90.20;;;;;;5060404;28;20618;-64
2023/11/27 06:32:31;;;;;;;15.23;7.10;;;3.60;90.20;;;;;;5064911;28;20618;-63
2023/11/27 06:34:58;;;;;;;15.20;7.90;;;3.60;90.30;;;;;;5063299;28;20204;-63
2023/11/27 06:37:27;;;;;;;14.73;7.37;;;3.60;90.40;;;;;;5061902;28;20251;-63
2023/11/27 06:39:54;;;;;;;12.07;7.07;;;3.60;90.40;;;;;;5066190;28;20212;-64
2023/11/27 06:42:21;;;;;;;12.77;9.00;;;3.60;90.40;;;;;;5064191;28;20200;-64
2023/11/27 06:44:48;;;;;;;11.63;7.20;;;3.60;90.40;;;;;;5065170;28;20262;-64
2023/11/27 06:47:16;;;;;;;15.53;6.53;;;3.60;90.40;;;;;;5066783;28;20216;-64
2023/11/27 06:49:43;;;;;;;9.80;6.47;;;3.70;90.40;;;;;;5066122;28;20219;-64
2023/11/27 06:52:11;;;;;;;11.20;7.47;;;3.70;90.40;;;;;;5062276;28;20219;-64
2023/11/27 06:54:38;;;;;;;11.90;7.43;;;3.70;90.50;;;;;;5063247;28;20222;-64
2023/11/27 06:57:05;;;;;;;13.27;6.97;;;3.80;90.50;;;;;;5065461;28;20642;-64
2023/11/27 06:59:31;;;;;;;18.07;7.47;;;3.80;90.60;;;;;;5059349;28;20205;-64
2023/11/27 07:01:59;;;;;;;14.57;6.70;;;3.80;90.60;;;;;;5044669;28;20687;-64
2023/11/27 07:04:26;;;;;;;13.50;7.20;;;3.90;90.60;;;;;;5067756;28;20332;-64
2023/11/27 07:06:53;;;;;;;10.20;6.97;;;3.90;90.60;;;;;;5062076;28;20205;-64
2023/11/27 07:09:23;;;;;;;14.43;7.63;;;3.90;90.50;;;;;;5061924;28;20279;-64
2023/11/27 07:11:50;;;;;;;12.50;7.00;;;4.00;90.50;;;;;;5062458;28;20194;-64
2023/11/27 07:14:17;;;;;;;17.03;8.10;;;4.00;90.40;;;;;;5061280;28;20579;-64
2023/11/27 07:16:44;;;;;;;13.83;6.93;;;4.00;90.50;;;;;;5066773;28;20224;-64
2023/11/27 07:19:13;;;;;;;14.83;7.10;;;4.10;90.50;;;;;;5061926;28;20284;-64
2023/11/27 07:21:41;;;;;;;10.97;7.80;;;4.10;90.50;;;;;;5064606;28;20215;-63
2023/11/27 07:24:09;;;;;;;17.30;7.60;;;4.10;90.50;;;;;;5059583;28;20195;-64
2023/11/27 07:26:36;;;;;;;11.00;8.33;;;4.20;90.50;;;;;;5057958;28;20224;-64
2023/11/27 07:29:03;;;;;;;10.33;6.87;;;4.20;90.50;;;;;;5062291;28;20540;-64
2023/11/27 07:31:31;;;;;;;8.40;6.23;;;4.20;90.50;;;;;;5063509;28;20195;-64
2023/11/27 07:34:00;;;;;;;10.33;6.67;;;4.30;90.40;;;;;;5071659;28;20223;-63
2023/11/27 07:36:27;;;;;;;11.30;6.93;;;4.30;90.50;;;;;;5064075;28;20202;-63
2023/11/27 07:38:55;;;;;;;12.10;7.90;;;4.30;90.50;;;;;;5043540;28;20655;-64
2023/11/27 07:41:23;;;;;;;11.00;8.40;;;4.30;90.60;;;;;;5066364;28;20196;-64
2023/11/27 07:43:50;;;;;;;10.97;8.20;;;4.30;90.60;;;;;;5068041;28;20198;-64
2023/11/27 07:46:18;;;;;;;12.47;8.33;;;4.30;90.60;;;;;;5068441;28;20604;-64
2023/11/27 07:48:46;;;;;;;11.47;8.30;;;4.40;90.70;;;;;;5064591;28;20213;-64
2023/11/27 07:51:13;;;;;;;11.87;9.60;;;4.40;90.70;;;;;;5062131;28;20228;-64
2023/11/27 07:53:40;;;;;;;14.60;8.80;;;4.40;90.70;;;;;;5066450;28;20687;-64
2023/11/27 07:56:08;;;;;;;16.37;8.87;;;4.40;91.00;;;;;;5064495;28;20202;-64
2023/11/27 07:58:36;;;;;;;15.77;9.67;;;4.40;90.70;;;;;;5063121;28;20194;-64
2023/11/27 08:01:04;;;;;;;18.07;9.07;;;4.50;90.70;;;;;;5063609;28;20566;-64
2023/11/27 08:03:31;;;;;;;12.17;8.47;;;4.50;90.70;;;;;;5061853;28;20216;-64
2023/11/27 08:06:01;;;;;;;18.13;9.47;;;4.60;90.70;;;;;;5065806;28;20308;-64
2023/11/27 08:08:28;;;;;;;17.73;8.67;;;4.60;90.60;;;;;;5055533;28;20206;-64
2023/11/27 08:10:56;;;;;;;15.47;9.63;;;4.60;90.60;;;;;;5067255;28;20229;-63
2023/11/27 08:13:24;;;;;;;16.37;10.70;;;4.70;90.60;;;;;;5066472;28;20205;-64
2023/11/27 08:15:52;;;;;;;19.20;9.47;;;4.70;90.70;;;;;;5066095;28;20624;-64
2023/11/27 08:18:19;;;;;;;16.37;9.50;;;4.70;90.70;;;;;;5056065;28;20201;-64
2023/11/27 08:20:46;;;;;;;13.90;8.80;;;4.80;90.80;;;;;;5066113;28;20193;-64
2023/11/27 08:23:13;;;;;;;13.97;9.20;;;4.90;90.80;;;;;;5067485;28;20396;-64
2023/11/27 08:25:43;;;;;;;14.40;9.40;;;4.90;90.80;;;;;;5068560;28;20236;-64
2023/11/27 08:28:11;;;;;;;17.07;8.90;;;5.00;90.70;;;;;;5069999;28;20283;-64
2023/11/27 08:30:41;;;;;;;20.53;10.40;;;5.00;90.50;;;;;;5067439;28;20689;-62
2023/11/27 08:33:09;;;;;;;17.80;9.33;;;5.10;90.50;;;;;;5066685;28;20209;-62
2023/11/27 08:35:36;;;;;;;11.20;9.17;;;5.10;90.50;;;;;;5051022;28;20245;-64
2023/11/27 08:38:04;;;;;;;16.30;9.43;;;5.20;90.50;;;;;;5064556;28;20222;-63
2023/11/27 08:40:31;;;;;;;13.70;8.90;;;5.20;90.50;;;;;;5064815;28;20194;-62
2023/11/27 08:43:00;;;;;;;14.40;9.23;;;5.30;90.50;;;;;;5054593;28;20288;-62
2023/11/27 08:45:27;;;;;;;14.43;9.67;;;5.30;90.50;;;;;;5067680;28;20213;-62
2023/11/27 08:47:55;;;;;;;16.43;10.07;;;5.30;90.50;;;;;;5053478;28;20281;-62
2023/11/27 08:50:27;;;;;;;11.33;8.40;;;5.40;90.60;;;;;;5061821;28;20210;-64
2023/11/27 08:52:56;;;;;;;20.63;9.13;;;5.50;90.60;;;;;;5064265;28;20645;-62
2023/11/27 08:55:32;;;;;;;16.97;8.63;;;5.50;90.50;;;;;;5064921;28;20218;-62
2023/11/27 08:58:03;;;;;;;11.90;8.17;;;5.60;90.50;;;;;;5071306;28;20251;-62
2023/11/27 09:00:31;;;;;;;12.67;7.97;;;5.60;90.40;;;;;;5061328;28;20217;-63
2023/11/27 09:02:58;;;;;;;16.60;8.67;;;5.70;90.40;;;;;;5057697;28;20702;-62
2023/11/27 09:05:30;;;;;;;17.70;9.23;;;5.70;90.30;;;;;;5065392;28;20269;-62
2023/11/27 09:08:05;;;;;;;12.43;8.30;;;5.80;90.20;;;;;;5065051;28;20256;-61
2023/11/27 09:10:35;;;;;;;13.70;8.63;;;5.80;90.10;;;;;;5065178;28;20193;-61
2023/11/27 09:13:05;;;;;;;16.57;9.10;;;5.90;90.10;;;;;;5063956;28;20772;-62
2023/11/27 09:15:33;;;;;;;15.60;8.17;;;6.00;90.10;;;;;;5063627;28;20206;-63
2023/11/27 09:18:01;;;;;;;14.80;7.93;;;6.10;90.10;;;;;;5064118;28;20222;-61
2023/11/27 09:20:28;;;;;;;13.40;8.17;;;6.20;90.30;;;;;;5065485;28;20639;-62
2023/11/27 09:22:56;;;;;;;12.47;8.47;;;6.30;89.80;;;;;;5066365;28;20202;-60
2023/11/27 09:25:24;;;;;;;10.90;8.20;;;6.40;89.60;;;;;;5061702;28;20515;-61
2023/11/27 09:32:04;;;;;;;12.73;8.03;;;6.60;89.10;;;;;;5049309;28;20201;-62
2023/11/27 09:34:31;;;;;;;14.80;8.13;;;6.60;88.80;;;;;;5071939;28;20216;-62
2023/11/27 09:36:59;;;;;;;11.83;7.40;;;6.70;88.80;;;;;;5045235;28;20230;-62
2023/11/27 09:39:31;;;;;;;12.33;8.43;;;6.80;88.80;;;;;;5061017;28;20204;-63
2023/11/27 09:41:59;;;;;;;15.00;8.17;;;6.80;88.80;;;;;;5054847;28;20248;-62
2023/11/27 09:44:26;;;;;;;9.60;7.43;;;6.90;88.80;;;;;;5064218;28;20276;-62
2023/11/27 09:46:56;;;;;;;12.47;8.07;;;7.00;88.70;;;;;;5069859;28;20516;-62
2023/11/27 09:49:24;;;;;;;13.57;8.00;;;7.10;88.60;;;;;;5062113;28;20213;-62
2023/11/27 09:52:02;;;;;;;10.17;7.73;;;7.10;88.40;;;;;;5065657;28;20272;-63
2023/11/27 09:54:33;;;;;;;11.30;7.80;;;7.20;88.30;;;;;;5060972;28;20302;-63
2023/11/27 09:57:02;;;;;;;12.47;7.73;;;7.30;88.20;;;;;;5068272;28;20198;-62
2023/11/27 09:59:32;;;;;;;10.70;8.10;;;7.30;87.90;;;;;;5066379;28;20237;-62
2023/11/27 10:02:02;;;;;;;9.23;7.67;;;7.40;87.10;;;;;;5057875;28;20195;-62
2023/11/27 10:04:30;;;;;;;11.30;7.43;;;7.40;87.10;;;;;;5061359;28;20234;-61
2023/11/27 10:06:57;;;;;;;8.87;6.87;;;7.40;87.10;;;;;;5062769;28;20206;-62
2023/11/27 10:09:24;;;;;;;13.20;6.67;;;7.50;86.90;;;;;;5065595;28;20210;-63
2023/11/27 10:12:00;;;;;;;7.20;5.80;;;7.60;86.30;;;;;;5049825;28;20284;-61
2023/11/27 10:14:29;;;;;;;9.87;6.40;;;7.60;85.30;;;;;;5056147;28;20227;-62
2023/11/27 10:17:05;;;;;;;15.60;7.57;;;7.60;84.10;;;;;;5059914;28;20226;-61
2023/11/27 10:19:39;;;;;;;11.23;7.97;;;7.70;83.70;;;;;;5064929;28;20231;-62
2023/11/27 10:22:08;;;;;;;11.23;7.63;;;7.70;83.10;;;;;;5066332;28;20640;-63
2023/11/27 10:24:36;;;;;;;9.17;7.10;;;7.70;82.90;;;;;;5061788;28;20716;-61
2023/11/27 10:27:07;;;;;;;13.67;7.73;;;7.70;82.70;;;;;;5058159;28;20207;-62
2023/11/27 10:29:34;;;;;;;10.93;7.60;;;7.80;82.50;;;;;;5059328;28;20217;-62
2023/11/27 10:32:02;;;;;;;13.10;7.40;;;7.80;82.20;;;;;;5066220;28;20300;-63
2023/11/27 10:34:32;;;;;;;12.93;7.23;;;7.80;81.80;;;;;;5067672;28;20534;-62
2023/11/27 10:37:02;;;;;;;11.23;7.13;;;7.80;81.90;;;;;;5064572;28;20260;-62
2023/11/27 10:39:34;;;;;;;12.53;7.20;;;7.80;81.60;;;;;;5063672;28;20190;-62
2023/11/27 10:42:07;;;;;;;14.87;7.50;;;7.90;81.40;;;;;;5066319;28;20201;-62
2023/11/27 10:44:36;;;;;;;8.33;6.27;;;7.90;81.00;;;;;;5062156;28;20588;-62
2023/11/27 10:47:07;;;;;;;11.17;6.40;;;7.90;80.80;;;;;;5063716;28;20312;-62
2023/11/27 10:49:38;;;;;;;8.77;5.53;;;7.90;80.50;;;;;;5060315;28;20289;-62
2023/11/27 10:52:09;;;;;;;9.90;5.90;;;8.00;80.40;;;;;;5059062;28;20194;-62
2023/11/27 10:54:41;;;;;;;8.37;6.27;;;8.00;80.00;;;;;;5062986;28;20229;-61
2023/11/27 10:57:09;;;;;;;7.30;5.17;;;8.00;79.50;;;;;;5062033;28;20277;-62
2023/11/27 10:59:42;;;;;;;9.77;5.63;;;8.10;79.30;;;;;;5062491;28;20190;-61
2023/11/27 11:02:13;;;;;;;11.73;6.23;;;8.10;79.00;;;;;;5061847;28;20221;-63
2023/11/27 11:04:51;;;;;;;9.17;6.27;;;8.10;78.60;;;;;;5060050;28;20229;-61
2023/11/27 11:07:25;;;;;;;11.40;6.60;;;8.10;78.10;;;;;;5067205;28;20222;-61
2023/11/27 11:09:55;;;;;;;7.50;5.57;;;8.10;77.90;;;;;;5067167;28;20229;-62
2023/11/27 11:12:23;;;;;;;8.57;5.70;;;8.20;77.80;;;;;;5070571;28;20554;-62
2023/11/27 11:14:53;;;;;;;6.90;5.60;;;8.30;77.50;;;;;;5066536;28;20207;-63
2023/11/27 11:17:30;;;;;;;10.37;6.03;;;8.30;77.10;;;;;;5066932;28;20591;-61
2023/11/27 11:20:28;;;;;;;8.73;5.53;;;8.40;76.80;;;;;;5064590;28;20210;-62
2023/11/27 11:23:15;;;;;;;16.70;5.40;;;8.50;76.40;;;;;;5065007;28;20658;-62
2023/11/27 11:25:56;;;;;;;7.57;5.17;;;8.50;75.90;;;;;;5062689;28;20203;-62
2023/11/27 11:28:57;;;;;;;12.60;6.13;;;8.60;75.30;;;;;;5049872;28;20344;-62
2023/11/27 11:31:33;;;;;;;12.03;7.23;;;8.60;75.00;;;;;;5062230;28;20200;-62
2023/11/27 11:34:02;;;;;;;13.27;8.13;;;8.60;75.10;;;;;;5049676;28;20209;-61
2023/11/27 11:36:34;;;;;;;11.23;7.30;;;8.60;76.20;;;;;;5063792;28;20254;-61
2023/11/27 11:39:07;;;;;;;12.93;7.97;;;8.60;76.70;;;;;;5066358;28;20612;-61
2023/11/27 11:41:36;;;;;;;11.57;7.67;;;8.60;77.10;;;;;;5066066;28;20621;-62
2023/11/27 11:44:16;;;;;;;10.83;6.80;;;8.60;77.30;;;;;;5063658;28;20579;-61
2023/11/27 11:46:47;;;;;;;9.10;7.13;;;8.60;77.40;;;;;;5068652;28;20295;-61
2023/11/27 11:49:26;;;;;;;10.77;8.13;;;8.60;77.00;;;;;;5058650;28;20201;-62
2023/11/27 11:52:07;;;;;;;12.27;7.33;;;8.60;76.60;;;;;;5062004;28;20195;-62
2023/11/27 11:54:39;;;;;;;10.13;7.07;;;8.60;76.90;;;;;;5067865;28;20293;-62
2023/11/27 11:57:22;;;;;;;11.80;8.00;;;8.70;77.00;;;;;;5067035;28;20214;-62
2023/11/27 11:59:50;;;;;;;12.70;8.77;;;8.70;76.60;;;;;;5068943;28;20229;-62
2023/11/27 12:02:22;;;;;;;15.90;9.20;;;8.80;76.40;;;;;;5068550;28;20199;-62
2023/11/27 12:04:51;;;;;;;15.73;10.07;;;8.80;76.40;;;;;;5060301;28;20265;-62
2023/11/27 12:07:19;;;;;;;16.57;10.33;;;8.90;76.40;;;;;;5068162;28;20206;-61
2023/11/27 12:09:49;;;;;;;18.97;10.90;;;8.90;76.20;;;;;;5051468;28;20684;-61
2023/11/27 12:12:16;;;;;;;14.53;9.60;;;8.90;75.90;;;;;;5067376;28;20566;-62
2023/11/27 12:14:43;;;;;;;16.37;7.83;;;8.90;75.60;;;;;;5068606;28;20221;-61
2023/11/27 12:17:15;;;;;;;10.23;6.53;;;8.90;74.90;;;;;;5066074;28;20204;-62
2023/11/27 12:19:48;;;;;;;9.73;6.37;;;8.90;74.00;;;;;;5039886;28;20285;-63
2023/11/27 12:22:18;;;;;;;10.50;6.40;;;8.90;73.20;;;;;;5067371;28;20198;-62
2023/11/27 12:24:50;;;;;;;9.50;6.20;;;8.90;73.40;;;;;;5044852;28;20215;-62
2023/11/27 12:27:21;;;;;;;13.60;6.83;;;8.90;73.20;;;;;;5069020;28;20205;-62
2023/11/27 12:29:48;;;;;;;8.20;6.23;;;8.90;73.00;;;;;;5063138;28;20285;-61
2023/11/27 12:32:20;;;;;;;13.77;7.53;;;8.90;73.00;;;;;;5053670;28;20211;-62
2023/11/27 12:34:47;;;;;;;11.90;6.73;;;8.90;73.00;;;;;;5057313;28;20222;-64
2023/11/27 12:37:15;;;;;;;9.80;7.50;;;9.00;72.90;;;;;;5065551;28;20200;-62
2023/11/27 12:39:42;;;;;;;9.37;6.47;;;8.90;72.90;;;;;;5060808;28;20192;-61
2023/11/27 12:42:13;;;;;;;13.77;7.13;;;9.00;72.30;;;;;;5064178;28;20537;-62
2023/11/27 12:44:46;;;;;;;16.10;7.57;;;9.00;72.60;;;;;;5063723;28;20209;-61
2023/11/27 12:47:18;;;;;;;9.37;7.00;;;9.00;73.00;;;;;;5064635;28;20201;-61
2023/11/27 12:49:52;;;;;;;9.80;6.43;;;9.00;73.10;;;;;;5065323;28;20209;-62
2023/11/27 12:52:19;;;;;;;8.43;6.50;;;9.00;73.30;;;;;;5066538;28;20225;-63
2023/11/27 12:54:54;;;;;;;9.43;5.93;;;8.90;73.70;;;;;;5063215;28;20278;-62
2023/11/27 12:57:22;;;;;;;12.67;6.07;;;8.90;74.00;;;;;;5064286;28;20228;-61
2023/11/27 12:59:49;;;;;;;10.17;6.37;;;8.90;73.90;;;;;;5063353;28;20276;-61